32.4°F
Current conditions from King Hill
Updated every 5 minutes
 
  Wednesday November 26, 2014

Station Historical Data
Daily Summary for August 19, 2012 Units:  Both    English   Metric
« Previous Day
Next Day »
Daily Weekly Monthly Yearly Custom
  High: Low: Average:
Temperature: 74.7 °F /  23.7 °C 44.2 °F /  6.8 °C 59.5 °F /  15.3 °C
Dew Point: 57.2 °F /  14 °C 42.7 °F /  5.9 °C 50 °F /  10 °C
Humidity: 96% 45% 74%
Wind Speed: 3.0mph /  4.8km/h - 1.4mph /  2.3km/h
Wind Gust: 8.0mph /  12.9km/h - -
Wind- - WSW
Pressure: 29.96 in /  1014.4 hPa 29.85 in /  1010.7 hPa -
Precipitation: 0.00 in /  0 mm    
Historical Graphs
 
 
Tabular Data for August 19, 2012
Time Temperature Dew Point Pressure Wind Wind Speed Wind Gust Humidity Daily Rainfall
00:04 47.6 °F /  8.7 °C 44.8 °F /  7.1 °C 29.91in /  1012.8hPa Calm     90% 0.00in /  0mm
00:09 47.6 °F /  8.7 °C 44.8 °F /  7.1 °C 29.91in /  1012.8hPa Calm     90% 0.00in /  0mm
00:14 47.3 °F /  8.5 °C 44.5 °F /  6.9 °C 29.92in /  1013.1hPa Calm     90% 0.00in /  0mm
00:19 47.2 °F /  8.4 °C 44.7 °F /  7.1 °C 29.92in /  1013.1hPa Calm     91% 0.00in /  0mm
00:24 47.2 °F /  8.4 °C 44.7 °F /  7.1 °C 29.91in /  1012.8hPa Calm     91% 0.00in /  0mm
00:30 47.2 °F /  8.4 °C 44.7 °F /  7.1 °C 29.92in /  1013.1hPa Calm     91% 0.00in /  0mm
00:39 47.0 °F /  8.3 °C 44.5 °F /  6.9 °C 29.92in /  1013.1hPa Calm     91% 0.00in /  0mm
00:44 46.8 °F /  8.2 °C 44.3 °F /  6.8 °C 29.92in /  1013.1hPa Calm     91% 0.00in /  0mm
00:49 46.8 °F /  8.2 °C 44.3 °F /  6.8 °C 29.92in /  1013.1hPa Calm     91% 0.00in /  0mm
00:54 46.6 °F /  8.1 °C 44.1 °F /  6.7 °C 29.91in /  1012.8hPa Calm     91% 0.00in /  0mm
00:59 46.5 °F /  8.1 °C 44.0 °F /  6.7 °C 29.91in /  1012.8hPa Calm     91% 0.00in /  0mm
01:04 46.4 °F /  8 °C 43.9 °F /  6.6 °C 29.92in /  1013.1hPa Calm     91% 0.00in /  0mm
01:09 46.6 °F /  8.1 °C 44.4 °F /  6.9 °C 29.92in /  1013.1hPa Calm     92% 0.00in /  0mm
01:14 46.6 °F /  8.1 °C 44.4 °F /  6.9 °C 29.92in /  1013.1hPa Calm     92% 0.00in /  0mm
01:19 46.5 °F /  8.1 °C 44.3 °F /  6.8 °C 29.92in /  1013.1hPa Calm     92% 0.00in /  0mm
01:24 46.4 °F /  8 °C 44.2 °F /  6.8 °C 29.92in /  1013.1hPa Calm     92% 0.00in /  0mm
01:29 46.3 °F /  7.9 °C 44.1 °F /  6.7 °C 29.92in /  1013.1hPa Calm     92% 0.00in /  0mm
01:34 46.2 °F /  7.9 °C 44.0 °F /  6.7 °C 29.92in /  1013.1hPa Calm     92% 0.00in /  0mm
01:39 46.3 °F /  7.9 °C 44.1 °F /  6.7 °C 29.93in /  1013.4hPa Calm     92% 0.00in /  0mm
01:44 46.1 °F /  7.8 °C 43.9 °F /  6.6 °C 29.92in /  1013.1hPa Calm     92% 0.00in /  0mm
01:49 46.1 °F /  7.8 °C 43.9 °F /  6.6 °C 29.93in /  1013.4hPa Calm     92% 0.00in /  0mm
01:54 46.2 °F /  7.9 °C 44.3 °F /  6.8 °C 29.92in /  1013.1hPa Calm     93% 0.00in /  0mm
01:59 46.2 °F /  7.9 °C 44.3 °F /  6.8 °C 29.92in /  1013.1hPa Calm     93% 0.00in /  0mm
02:04 46.0 °F /  7.8 °C 44.1 °F /  6.7 °C 29.93in /  1013.4hPa Calm     93% 0.00in /  0mm
02:09 46.0 °F /  7.8 °C 44.1 °F /  6.7 °C 29.92in /  1013.1hPa Calm     93% 0.00in /  0mm
02:14 46.1 °F /  7.8 °C 44.2 °F /  6.8 °C 29.92in /  1013.1hPa Calm     93% 0.00in /  0mm
02:19 46.0 °F /  7.8 °C 44.1 °F /  6.7 °C 29.92in /  1013.1hPa Calm     93% 0.00in /  0mm
02:24 46.0 °F /  7.8 °C 44.1 °F /  6.7 °C 29.92in /  1013.1hPa Calm     93% 0.00in /  0mm
02:29 45.9 °F /  7.7 °C 44.0 °F /  6.7 °C 29.92in /  1013.1hPa Calm     93% 0.00in /  0mm
02:34 46.0 °F /  7.8 °C 44.1 °F /  6.7 °C 29.92in /  1013.1hPa Calm     93% 0.00in /  0mm
02:39 46.0 °F /  7.8 °C 44.1 °F /  6.7 °C 29.92in /  1013.1hPa Calm     93% 0.00in /  0mm
02:44 45.8 °F /  7.7 °C 43.9 °F /  6.6 °C 29.92in /  1013.1hPa Calm     93% 0.00in /  0mm
02:49 45.9 °F /  7.7 °C 44.3 °F /  6.8 °C 29.92in /  1013.1hPa Calm     94% 0.00in /  0mm
02:54 45.8 °F /  7.7 °C 44.2 °F /  6.8 °C 29.92in /  1013.1hPa Calm     94% 0.00in /  0mm
02:59 45.8 °F /  7.7 °C 44.2 °F /  6.8 °C 29.92in /  1013.1hPa Calm     94% 0.00in /  0mm
03:04 45.7 °F /  7.6 °C 43.8 °F /  6.6 °C 29.92in /  1013.1hPa Calm     93% 0.00in /  0mm
03:09 45.6 °F /  7.6 °C 44.0 °F /  6.7 °C 29.92in /  1013.1hPa Calm     94% 0.00in /  0mm
03:14 45.5 °F /  7.5 °C 43.9 °F /  6.6 °C 29.92in /  1013.1hPa Calm     94% 0.00in /  0mm
03:19 45.2 °F /  7.3 °C 43.6 °F /  6.4 °C 29.92in /  1013.1hPa Calm     94% 0.00in /  0mm
03:24 45.0 °F /  7.2 °C 43.1 °F /  6.2 °C 29.92in /  1013.1hPa Calm     93% 0.00in /  0mm
03:29 45.0 °F /  7.2 °C 43.4 °F /  6.3 °C 29.92in /  1013.1hPa Calm     94% 0.00in /  0mm
03:34 45.0 °F /  7.2 °C 43.4 °F /  6.3 °C 29.92in /  1013.1hPa Calm     94% 0.00in /  0mm
03:39 45.0 °F /  7.2 °C 43.4 °F /  6.3 °C 29.92in /  1013.1hPa Calm     94% 0.00in /  0mm
03:44 44.9 °F /  7.2 °C 43.3 °F /  6.3 °C 29.92in /  1013.1hPa Calm     94% 0.00in /  0mm
03:49 44.7 °F /  7.1 °C 43.1 °F /  6.2 °C 29.92in /  1013.1hPa Calm     94% 0.00in /  0mm
03:54 44.5 °F /  6.9 °C 42.9 °F /  6.1 °C 29.92in /  1013.1hPa Calm     94% 0.00in /  0mm
03:59 44.4 °F /  6.9 °C 42.8 °F /  6 °C 29.92in /  1013.1hPa Calm     94% 0.00in /  0mm
04:04 44.4 °F /  6.9 °C 42.8 °F /  6 °C 29.92in /  1013.1hPa Calm     94% 0.00in /  0mm
04:10 44.6 °F /  7 °C 43.0 °F /  6.1 °C 29.92in /  1013.1hPa Calm     94% 0.00in /  0mm
04:19 44.6 °F /  7 °C 43.0 °F /  6.1 °C 29.91in /  1012.8hPa Calm     94% 0.00in /  0mm
04:24 44.5 °F /  6.9 °C 42.9 °F /  6.1 °C 29.91in /  1012.8hPa Calm     94% 0.00in /  0mm
04:29 44.5 °F /  6.9 °C 42.9 °F /  6.1 °C 29.91in /  1012.8hPa Calm     94% 0.00in /  0mm
04:34 44.5 °F /  6.9 °C 42.9 °F /  6.1 °C 29.91in /  1012.8hPa Calm     94% 0.00in /  0mm
04:39 44.3 °F /  6.8 °C 42.7 °F /  5.9 °C 29.92in /  1013.1hPa Calm     94% 0.00in /  0mm
04:44 44.5 °F /  6.9 °C 42.9 °F /  6.1 °C 29.92in /  1013.1hPa Calm     94% 0.00in /  0mm
04:49 44.4 °F /  6.9 °C 42.8 °F /  6 °C 29.92in /  1013.1hPa Calm     94% 0.00in /  0mm
04:54 44.4 °F /  6.9 °C 42.8 °F /  6 °C 29.92in /  1013.1hPa Calm     94% 0.00in /  0mm
04:59 44.4 °F /  6.9 °C 42.8 °F /  6 °C 29.92in /  1013.1hPa Calm     94% 0.00in /  0mm
05:04 44.4 °F /  6.9 °C 42.8 °F /  6 °C 29.92in /  1013.1hPa Calm     94% 0.00in /  0mm
05:09 44.3 °F /  6.8 °C 43.0 °F /  6.1 °C 29.93in /  1013.4hPa Calm     95% 0.00in /  0mm
05:14 44.3 °F /  6.8 °C 43.0 °F /  6.1 °C 29.93in /  1013.4hPa Calm     95% 0.00in /  0mm
05:19 44.3 °F /  6.8 °C 43.0 °F /  6.1 °C 29.93in /  1013.4hPa Calm     95% 0.00in /  0mm
05:24 44.3 °F /  6.8 °C 43.0 °F /  6.1 °C 29.93in /  1013.4hPa Calm     95% 0.00in /  0mm
05:29 44.4 °F /  6.9 °C 43.1 °F /  6.2 °C 29.93in /  1013.4hPa Calm     95% 0.00in /  0mm
05:35 44.4 °F /  6.9 °C 43.1 °F /  6.2 °C 29.93in /  1013.4hPa Calm     95% 0.00in /  0mm
05:44 44.2 °F /  6.8 °C 42.9 °F /  6.1 °C 29.94in /  1013.8hPa Calm     95% 0.00in /  0mm
05:49 44.3 °F /  6.8 °C 43.0 °F /  6.1 °C 29.93in /  1013.4hPa Calm     95% 0.00in /  0mm
05:54 44.3 °F /  6.8 °C 43.0 °F /  6.1 °C 29.94in /  1013.8hPa Calm     95% 0.00in /  0mm
05:59 44.4 °F /  6.9 °C 43.1 °F /  6.2 °C 29.94in /  1013.8hPa Calm     95% 0.00in /  0mm
06:04 44.4 °F /  6.9 °C 43.1 °F /  6.2 °C 29.93in /  1013.4hPa Calm     95% 0.00in /  0mm
06:09 44.3 °F /  6.8 °C 43.0 °F /  6.1 °C 29.92in /  1013.1hPa Calm     95% 0.00in /  0mm
06:14 44.2 °F /  6.8 °C 42.9 °F /  6.1 °C 29.92in /  1013.1hPa Calm     95% 0.00in /  0mm
06:19 44.4 °F /  6.9 °C 43.1 °F /  6.2 °C 29.93in /  1013.4hPa Calm     95% 0.00in /  0mm
06:24 44.5 °F /  6.9 °C 43.2 °F /  6.2 °C 29.94in /  1013.8hPa Calm     95% 0.00in /  0mm
06:29 44.5 °F /  6.9 °C 43.2 °F /  6.2 °C 29.94in /  1013.8hPa Calm     95% 0.00in /  0mm
06:34 44.7 °F /  7.1 °C 43.4 °F /  6.3 °C 29.95in /  1014.1hPa Calm     95% 0.00in /  0mm
06:39 45.0 °F /  7.2 °C 43.7 °F /  6.5 °C 29.96in /  1014.4hPa Calm     95% 0.00in /  0mm
06:45 45.2 °F /  7.3 °C 43.9 °F /  6.6 °C 29.96in /  1014.4hPa Calm     95% 0.00in /  0mm
06:54 46.1 °F /  7.8 °C 44.7 °F /  7.1 °C 29.95in /  1014.1hPa Calm   1.0mph /  1.6km/h 95% 0.00in /  0mm
06:59 47.1 °F /  8.4 °C 45.7 °F /  7.6 °C 29.95in /  1014.1hPa Calm   1.0mph /  1.6km/h 95% 0.00in /  0mm
07:04 47.3 °F /  8.5 °C 46.2 °F /  7.9 °C 29.95in /  1014.1hPa Calm     96% 0.00in /  0mm
07:09 47.5 °F /  8.6 °C 46.4 °F /  8 °C 29.95in /  1014.1hPa Calm     96% 0.00in /  0mm
07:14 47.7 °F /  8.7 °C 46.3 °F /  7.9 °C 29.95in /  1014.1hPa Calm     95% 0.00in /  0mm
07:19 47.8 °F /  8.8 °C 46.4 °F /  8 °C 29.95in /  1014.1hPa Calm     95% 0.00in /  0mm
07:25 48.3 °F /  9.1 °C 47.2 °F /  8.4 °C 29.95in /  1014.1hPa Calm     96% 0.00in /  0mm
07:35 49.8 °F /  9.9 °C 48.7 °F /  9.3 °C 29.95in /  1014.1hPa Calm     96% 0.00in /  0mm
07:44 52.1 °F /  11.2 °C 51.0 °F /  10.6 °C 29.95in /  1014.1hPa Calm     96% 0.00in /  0mm
07:49 53.4 °F /  11.9 °C 52.3 °F /  11.3 °C 29.95in /  1014.1hPa Calm     96% 0.00in /  0mm
07:54 54.4 °F /  12.4 °C 53.3 °F /  11.8 °C 29.95in /  1014.1hPa Calm     96% 0.00in /  0mm
07:59 55.5 °F /  13.1 °C 54.4 °F /  12.4 °C 29.95in /  1014.1hPa Calm     96% 0.00in /  0mm
08:05 56.0 °F /  13.3 °C 54.9 °F /  12.7 °C 29.95in /  1014.1hPa Calm     96% 0.00in /  0mm
08:14 55.9 °F /  13.3 °C 54.8 °F /  12.7 °C 29.95in /  1014.1hPa Calm     96% 0.00in /  0mm
08:19 56.5 °F /  13.6 °C 55.4 °F /  13 °C 29.95in /  1014.1hPa Calm     96% 0.00in /  0mm
08:24 57.2 °F /  14 °C 56.1 °F /  13.4 °C 29.95in /  1014.1hPa Calm     96% 0.00in /  0mm
08:29 58.0 °F /  14.4 °C 56.9 °F /  13.8 °C 29.95in /  1014.1hPa Calm     96% 0.00in /  0mm
08:35 58.2 °F /  14.6 °C 56.8 °F /  13.8 °C 29.95in /  1014.1hPa Calm     95% 0.00in /  0mm
08:44 59.0 °F /  15 °C 53.5 °F /  11.9 °C 29.95in /  1014.1hPa Calm     82% 0.00in /  0mm
08:49 60.3 °F /  15.7 °C 54.1 °F /  12.3 °C 29.95in /  1014.1hPa Calm     80% 0.00in /  0mm
08:54 61.5 °F /  16.4 °C 54.6 °F /  12.6 °C 29.95in /  1014.1hPa Calm     78% 0.00in /  0mm
08:59 62.7 °F /  17.1 °C 55.0 °F /  12.8 °C 29.95in /  1014.1hPa Calm     76% 0.00in /  0mm
09:04 63.9 °F /  17.7 °C 55.5 °F /  13.1 °C 29.95in /  1014.1hPa Calm     74% 0.00in /  0mm
09:09 64.8 °F /  18.2 °C 54.4 °F /  12.4 °C 29.95in /  1014.1hPa Calm     69% 0.00in /  0mm
09:14 65.5 °F /  18.6 °C 54.3 °F /  12.4 °C 29.95in /  1014.1hPa Calm     67% 0.00in /  0mm
09:19 65.9 °F /  18.8 °C 55.1 °F /  12.8 °C 29.94in /  1013.8hPa Calm     68% 0.00in /  0mm
09:24 66.3 °F /  19.1 °C 52.5 °F /  11.4 °C 29.94in /  1013.8hPa Calm     61% 0.00in /  0mm
09:29 66.8 °F /  19.3 °C 52.5 °F /  11.4 °C 29.94in /  1013.8hPa Calm     60% 0.00in /  0mm
09:34 66.9 °F /  19.4 °C 53.9 °F /  12.2 °C 29.94in /  1013.8hPa Calm     63% 0.00in /  0mm
09:39 67.0 °F /  19.4 °C 51.8 °F /  11 °C 29.94in /  1013.8hPa Calm     58% 0.00in /  0mm
09:44 67.3 °F /  19.6 °C 52.0 °F /  11.1 °C 29.94in /  1013.8hPa Calm     58% 0.00in /  0mm
09:49 68.0 °F /  20 °C 54.1 °F /  12.3 °C 29.94in /  1013.8hPa Calm     61% 0.00in /  0mm
09:54 68.9 °F /  20.5 °C 54.0 °F /  12.2 °C 29.94in /  1013.8hPa Calm     59% 0.00in /  0mm
09:59 69.1 °F /  20.6 °C 53.2 °F /  11.8 °C 29.94in /  1013.8hPa Calm     57% 0.00in /  0mm
10:04 69.1 °F /  20.6 °C 52.3 °F /  11.3 °C 29.94in /  1013.8hPa Calm     55% 0.00in /  0mm
10:09 69.3 °F /  20.7 °C 52.9 °F /  11.6 °C 29.94in /  1013.8hPa Calm     56% 0.00in /  0mm
10:14 69.6 °F /  20.9 °C 51.2 °F /  10.7 °C 29.94in /  1013.8hPa Calm     52% 0.00in /  0mm
10:19 69.5 °F /  20.8 °C 50.1 °F /  10.1 °C 29.94in /  1013.8hPa Calm   1.0mph /  1.6km/h 50% 0.00in /  0mm
10:24 69.6 °F /  20.9 °C 51.7 °F /  10.9 °C 29.94in /  1013.8hPa Calm   1.0mph /  1.6km/h 53% 0.00in /  0mm
10:29 69.8 °F /  21 °C 51.9 °F /  11.1 °C 29.95in /  1014.1hPa Calm     53% 0.00in /  0mm
10:34 70.2 °F /  21.2 °C 50.7 °F /  10.4 °C 29.94in /  1013.8hPa Calm     50% 0.00in /  0mm
10:39 70.5 °F /  21.4 °C 52.0 °F /  11.1 °C 29.95in /  1014.1hPa Calm     52% 0.00in /  0mm
10:44 70.2 °F /  21.2 °C 51.2 °F /  10.7 °C 29.95in /  1014.1hPa Calm   2.0mph /  3.2km/h 51% 0.00in /  0mm
10:49 70.2 °F /  21.2 °C 51.8 °F /  11 °C 29.94in /  1013.8hPa Calm   2.0mph /  3.2km/h 52% 0.00in /  0mm
10:54 70.3 °F /  21.3 °C 51.3 °F /  10.7 °C 29.94in /  1013.8hPa WNW 2.0mph /  3.2km/h 8.0mph /  12.9km/h 51% 0.00in /  0mm
10:59 69.9 °F /  21.1 °C 51.0 °F /  10.6 °C 29.94in /  1013.8hPa Calm   8.0mph /  12.9km/h 51% 0.00in /  0mm
11:04 69.5 °F /  20.8 °C 52.6 °F /  11.4 °C 29.94in /  1013.8hPa Calm     55% 0.00in /  0mm
11:09 70.0 °F /  21.1 °C 53.6 °F /  12 °C 29.94in /  1013.8hPa WSW 1.0mph /  1.6km/h 4.0mph /  6.4km/h 56% 0.00in /  0mm
11:14 70.6 °F /  21.4 °C 54.6 °F /  12.6 °C 29.94in /  1013.8hPa Calm   4.0mph /  6.4km/h 57% 0.00in /  0mm
11:19 71.3 °F /  21.8 °C 53.8 °F /  12.1 °C 29.94in /  1013.8hPa Calm   4.0mph /  6.4km/h 54% 0.00in /  0mm
11:24 71.5 °F /  21.9 °C 53.0 °F /  11.7 °C 29.93in /  1013.4hPa Calm     52% 0.00in /  0mm
11:29 71.4 °F /  21.9 °C 52.9 °F /  11.6 °C 29.94in /  1013.8hPa Calm   5.0mph /  8km/h 52% 0.00in /  0mm
11:34 71.1 °F /  21.7 °C 52.6 °F /  11.4 °C 29.94in /  1013.8hPa Calm   5.0mph /  8km/h 52% 0.00in /  0mm
11:39 71.6 °F /  22 °C 54.6 °F /  12.6 °C 29.94in /  1013.8hPa SSE 1.0mph /  1.6km/h 7.0mph /  11.3km/h 55% 0.00in /  0mm
11:44 72.3 °F /  22.4 °C 54.2 °F /  12.3 °C 29.94in /  1013.8hPa Calm   7.0mph /  11.3km/h 53% 0.00in /  0mm
11:49 72.3 °F /  22.4 °C 54.2 °F /  12.3 °C 29.93in /  1013.4hPa SSW 1.0mph /  1.6km/h 5.0mph /  8km/h 53% 0.00in /  0mm
11:54 71.9 °F /  22.2 °C 53.3 °F /  11.8 °C 29.93in /  1013.4hPa Calm   6.0mph /  9.7km/h 52% 0.00in /  0mm
11:59 72.0 °F /  22.2 °C 54.0 °F /  12.2 °C 29.93in /  1013.4hPa Calm   7.0mph /  11.3km/h 53% 0.00in /  0mm
12:04 71.8 °F /  22.1 °C 52.2 °F /  11.2 °C 29.93in /  1013.4hPa Calm   7.0mph /  11.3km/h 50% 0.00in /  0mm
12:09 72.1 °F /  22.3 °C 54.6 °F /  12.6 °C 29.92in /  1013.1hPa Calm     54% 0.00in /  0mm
12:14 72.6 °F /  22.6 °C 54.0 °F /  12.2 °C 29.92in /  1013.1hPa Calm     52% 0.00in /  0mm
12:19 72.5 °F /  22.5 °C 52.3 °F /  11.3 °C 29.92in /  1013.1hPa Calm   1.0mph /  1.6km/h 49% 0.00in /  0mm
12:24 72.5 °F /  22.5 °C 52.8 °F /  11.6 °C 29.92in /  1013.1hPa Calm   1.0mph /  1.6km/h 50% 0.00in /  0mm
12:29 72.6 °F /  22.6 °C 52.9 °F /  11.6 °C 29.92in /  1013.1hPa Calm   1.0mph /  1.6km/h 50% 0.00in /  0mm
12:34 72.5 °F /  22.5 °C 53.9 °F /  12.2 °C 29.92in /  1013.1hPa Calm   1.0mph /  1.6km/h 52% 0.00in /  0mm
12:39 72.7 °F /  22.6 °C 54.1 °F /  12.3 °C 29.92in /  1013.1hPa Calm   1.0mph /  1.6km/h 52% 0.00in /  0mm
12:44 72.7 °F /  22.6 °C 53.0 °F /  11.7 °C 29.92in /  1013.1hPa Calm   4.0mph /  6.4km/h 50% 0.00in /  0mm
12:49 72.6 °F /  22.6 °C 53.5 °F /  11.9 °C 29.92in /  1013.1hPa Calm   4.0mph /  6.4km/h 51% 0.00in /  0mm
12:54 72.6 °F /  22.6 °C 53.5 °F /  11.9 °C 29.92in /  1013.1hPa Calm   4.0mph /  6.4km/h 51% 0.00in /  0mm
12:59 72.9 °F /  22.7 °C 55.8 °F /  13.2 °C 29.92in /  1013.1hPa Calm   1.0mph /  1.6km/h 55% 0.00in /  0mm
13:04 72.9 °F /  22.7 °C 54.8 °F /  12.7 °C 29.92in /  1013.1hPa Calm   1.0mph /  1.6km/h 53% 0.00in /  0mm
13:09 73.0 °F /  22.8 °C 52.7 °F /  11.5 °C 29.92in /  1013.1hPa Calm   1.0mph /  1.6km/h 49% 0.00in /  0mm
13:14 73.0 °F /  22.8 °C 53.3 °F /  11.8 °C 29.91in /  1012.8hPa WNW 1.0mph /  1.6km/h 4.0mph /  6.4km/h 50% 0.00in /  0mm
13:19 73.0 °F /  22.8 °C 53.3 °F /  11.8 °C 29.91in /  1012.8hPa WNW 2.0mph /  3.2km/h 6.0mph /  9.7km/h 50% 0.00in /  0mm
13:24 72.7 °F /  22.6 °C 52.5 °F /  11.4 °C 29.91in /  1012.8hPa West 1.0mph /  1.6km/h 6.0mph /  9.7km/h 49% 0.00in /  0mm
13:29 72.7 °F /  22.6 °C 55.6 °F /  13.1 °C 29.91in /  1012.8hPa Calm   5.0mph /  8km/h 55% 0.00in /  0mm
13:34 73.0 °F /  22.8 °C 53.3 °F /  11.8 °C 29.91in /  1012.8hPa Calm   2.0mph /  3.2km/h 50% 0.00in /  0mm
13:39 73.2 °F /  22.9 °C 54.0 °F /  12.2 °C 29.91in /  1012.8hPa West 2.0mph /  3.2km/h 8.0mph /  12.9km/h 51% 0.00in /  0mm
13:44 73.3 °F /  22.9 °C 53.0 °F /  11.7 °C 29.92in /  1013.1hPa Calm   8.0mph /  12.9km/h 49% 0.00in /  0mm
13:49 73.2 °F /  22.9 °C 51.8 °F /  11 °C 29.91in /  1012.8hPa WSW 1.0mph /  1.6km/h 6.0mph /  9.7km/h 47% 0.00in /  0mm
13:54 72.9 °F /  22.7 °C 51.5 °F /  10.8 °C 29.91in /  1012.8hPa WNW 2.0mph /  3.2km/h 6.0mph /  9.7km/h 47% 0.00in /  0mm
13:59 72.7 °F /  22.6 °C 52.5 °F /  11.4 °C 29.91in /  1012.8hPa WNW 1.0mph /  1.6km/h 5.0mph /  8km/h 49% 0.00in /  0mm
14:04 72.7 °F /  22.6 °C 53.0 °F /  11.7 °C 29.91in /  1012.8hPa WNW 1.0mph /  1.6km/h 4.0mph /  6.4km/h 50% 0.00in /  0mm
14:09 72.9 °F /  22.7 °C 52.1 °F /  11.2 °C 29.91in /  1012.8hPa SW 3.0mph /  4.8km/h 6.0mph /  9.7km/h 48% 0.00in /  0mm
14:14 72.9 °F /  22.7 °C 54.8 °F /  12.7 °C 29.91in /  1012.8hPa Calm   6.0mph /  9.7km/h 53% 0.00in /  0mm
14:19 72.9 °F /  22.7 °C 52.6 °F /  11.4 °C 29.90in /  1012.4hPa Calm   6.0mph /  9.7km/h 49% 0.00in /  0mm
14:24 72.6 °F /  22.6 °C 50.1 °F /  10.1 °C 29.90in /  1012.4hPa Calm   5.0mph /  8km/h 45% 0.00in /  0mm
14:29 72.8 °F /  22.7 °C 52.6 °F /  11.4 °C 29.90in /  1012.4hPa Calm   4.0mph /  6.4km/h 49% 0.00in /  0mm
14:34 72.9 °F /  22.7 °C 52.6 °F /  11.4 °C 29.90in /  1012.4hPa Calm   5.0mph /  8km/h 49% 0.00in /  0mm
14:39 73.0 °F /  22.8 °C 52.7 °F /  11.5 °C 29.90in /  1012.4hPa Calm   5.0mph /  8km/h 49% 0.00in /  0mm
14:44 73.0 °F /  22.8 °C 52.2 °F /  11.2 °C 29.90in /  1012.4hPa SW 1.0mph /  1.6km/h 4.0mph /  6.4km/h 48% 0.00in /  0mm
14:49 72.7 °F /  22.6 °C 51.9 °F /  11.1 °C 29.90in /  1012.4hPa Calm   5.0mph /  8km/h 48% 0.00in /  0mm
14:54 72.5 °F /  22.5 °C 53.9 °F /  12.2 °C 29.90in /  1012.4hPa Calm   5.0mph /  8km/h 52% 0.00in /  0mm
14:59 72.6 °F /  22.6 °C 54.0 °F /  12.2 °C 29.90in /  1012.4hPa Calm   3.0mph /  4.8km/h 52% 0.00in /  0mm
15:04 72.7 °F /  22.6 °C 53.5 °F /  11.9 °C 29.90in /  1012.4hPa Calm   4.0mph /  6.4km/h 51% 0.00in /  0mm
15:09 72.6 °F /  22.6 °C 51.8 °F /  11 °C 29.90in /  1012.4hPa SSW 2.0mph /  3.2km/h 4.0mph /  6.4km/h 48% 0.00in /  0mm
15:14 72.7 °F /  22.6 °C 51.9 °F /  11.1 °C 29.90in /  1012.4hPa Calm   4.0mph /  6.4km/h 48% 0.00in /  0mm
15:19 72.8 °F /  22.7 °C 53.1 °F /  11.7 °C 29.90in /  1012.4hPa Calm   3.0mph /  4.8km/h 50% 0.00in /  0mm
15:24 72.9 °F /  22.7 °C 53.7 °F /  12.1 °C 29.89in /  1012.1hPa Calm   4.0mph /  6.4km/h 51% 0.00in /  0mm
15:29 73.5 °F /  23.1 °C 54.3 °F /  12.4 °C 29.89in /  1012.1hPa WSW 1.0mph /  1.6km/h 4.0mph /  6.4km/h 51% 0.00in /  0mm
15:34 74.0 °F /  23.3 °C 52.5 °F /  11.4 °C 29.89in /  1012.1hPa SW 2.0mph /  3.2km/h 6.0mph /  9.7km/h 47% 0.00in /  0mm
15:39 74.0 °F /  23.3 °C 53.1 °F /  11.7 °C 29.89in /  1012.1hPa West 1.0mph /  1.6km/h 6.0mph /  9.7km/h 48% 0.00in /  0mm
15:44 74.3 °F /  23.5 °C 52.8 °F /  11.6 °C 29.89in /  1012.1hPa SSW 1.0mph /  1.6km/h 5.0mph /  8km/h 47% 0.00in /  0mm
15:49 74.5 °F /  23.6 °C 53.0 °F /  11.7 °C 29.88in /  1011.7hPa Calm   5.0mph /  8km/h 47% 0.00in /  0mm
15:54 74.7 °F /  23.7 °C 53.2 °F /  11.8 °C 29.88in /  1011.7hPa Calm   1.0mph /  1.6km/h 47% 0.00in /  0mm
15:59 74.3 °F /  23.5 °C 51.6 °F /  10.9 °C 29.88in /  1011.7hPa Calm   4.0mph /  6.4km/h 45% 0.00in /  0mm
16:04 73.9 °F /  23.3 °C 54.1 °F /  12.3 °C 29.88in /  1011.7hPa Calm   4.0mph /  6.4km/h 50% 0.00in /  0mm
16:09 73.4 °F /  23 °C 50.8 °F /  10.4 °C 29.88in /  1011.7hPa Calm   4.0mph /  6.4km/h 45% 0.00in /  0mm
16:14 73.2 °F /  22.9 °C 54.0 °F /  12.2 °C 29.88in /  1011.7hPa Calm   3.0mph /  4.8km/h 51% 0.00in /  0mm
16:19 73.1 °F /  22.8 °C 52.3 °F /  11.3 °C 29.88in /  1011.7hPa Calm   1.0mph /  1.6km/h 48% 0.00in /  0mm
16:24 72.8 °F /  22.7 °C 53.1 °F /  11.7 °C 29.88in /  1011.7hPa Calm   1.0mph /  1.6km/h 50% 0.00in /  0mm
16:29 72.4 °F /  22.4 °C 52.7 °F /  11.5 °C 29.88in /  1011.7hPa Calm     50% 0.00in /  0mm
16:34 72.4 °F /  22.4 °C 54.8 °F /  12.7 °C 29.88in /  1011.7hPa Calm     54% 0.00in /  0mm
16:39 72.4 °F /  22.4 °C 54.8 °F /  12.7 °C 29.88in /  1011.7hPa Calm     54% 0.00in /  0mm
16:44 72.4 °F /  22.4 °C 53.3 °F /  11.8 °C 29.88in /  1011.7hPa Calm     51% 0.00in /  0mm
16:49 72.3 °F /  22.4 °C 54.7 °F /  12.6 °C 29.87in /  1011.4hPa Calm     54% 0.00in /  0mm
16:54 72.2 °F /  22.3 °C 54.7 °F /  12.6 °C 29.87in /  1011.4hPa Calm     54% 0.00in /  0mm
16:59 72.6 °F /  22.6 °C 53.5 °F /  11.9 °C 29.87in /  1011.4hPa Calm     51% 0.00in /  0mm
17:04 72.9 °F /  22.7 °C 55.8 °F /  13.2 °C 29.87in /  1011.4hPa Calm     55% 0.00in /  0mm
17:09 73.0 °F /  22.8 °C 54.9 °F /  12.7 °C 29.87in /  1011.4hPa Calm     53% 0.00in /  0mm
17:14 73.1 °F /  22.8 °C 54.4 °F /  12.4 °C 29.87in /  1011.4hPa Calm     52% 0.00in /  0mm
17:19 73.3 °F /  22.9 °C 54.1 °F /  12.3 °C 29.87in /  1011.4hPa Calm     51% 0.00in /  0mm
17:24 73.0 °F /  22.8 °C 54.4 °F /  12.4 °C 29.87in /  1011.4hPa Calm     52% 0.00in /  0mm
17:29 72.8 °F /  22.7 °C 55.2 °F /  12.9 °C 29.87in /  1011.4hPa Calm     54% 0.00in /  0mm
17:34 72.5 °F /  22.5 °C 55.4 °F /  13 °C 29.87in /  1011.4hPa Calm     55% 0.00in /  0mm
17:39 72.3 °F /  22.4 °C 53.7 °F /  12.1 °C 29.87in /  1011.4hPa Calm     52% 0.00in /  0mm
17:44 72.2 °F /  22.3 °C 55.2 °F /  12.9 °C 29.87in /  1011.4hPa Calm     55% 0.00in /  0mm
17:49 72.1 °F /  22.3 °C 55.1 °F /  12.8 °C 29.86in /  1011.1hPa Calm     55% 0.00in /  0mm
17:54 72.1 °F /  22.3 °C 56.0 °F /  13.3 °C 29.86in /  1011.1hPa Calm     57% 0.00in /  0mm
17:59 71.9 °F /  22.2 °C 55.4 °F /  13 °C 29.86in /  1011.1hPa Calm   1.0mph /  1.6km/h 56% 0.00in /  0mm
18:04 71.6 °F /  22 °C 53.6 °F /  12 °C 29.86in /  1011.1hPa Calm   1.0mph /  1.6km/h 53% 0.00in /  0mm
18:09 71.4 °F /  21.9 °C 54.9 °F /  12.7 °C 29.86in /  1011.1hPa Calm     56% 0.00in /  0mm
18:14 71.2 °F /  21.8 °C 55.7 °F /  13.2 °C 29.86in /  1011.1hPa Calm     58% 0.00in /  0mm
18:19 70.8 °F /  21.6 °C 55.3 °F /  12.9 °C 29.86in /  1011.1hPa Calm     58% 0.00in /  0mm
18:24 70.8 °F /  21.6 °C 57.2 °F /  14 °C 29.86in /  1011.1hPa Calm     62% 0.00in /  0mm
18:29 70.9 °F /  21.6 °C 54.9 °F /  12.7 °C 29.86in /  1011.1hPa Calm     57% 0.00in /  0mm
18:34 70.9 °F /  21.6 °C 54.4 °F /  12.4 °C 29.86in /  1011.1hPa Calm   1.0mph /  1.6km/h 56% 0.00in /  0mm
18:39 71.0 °F /  21.7 °C 56.0 °F /  13.3 °C 29.86in /  1011.1hPa Calm   1.0mph /  1.6km/h 59% 0.00in /  0mm
18:44 70.9 °F /  21.6 °C 53.9 °F /  12.2 °C 29.86in /  1011.1hPa Calm   2.0mph /  3.2km/h 55% 0.00in /  0mm
18:49 70.8 °F /  21.6 °C 54.8 °F /  12.7 °C 29.86in /  1011.1hPa Calm   2.0mph /  3.2km/h 57% 0.00in /  0mm
18:54 70.2 °F /  21.2 °C 56.1 °F /  13.4 °C 29.86in /  1011.1hPa Calm     61% 0.00in /  0mm
18:59 69.3 °F /  20.7 °C 56.6 °F /  13.7 °C 29.86in /  1011.1hPa Calm     64% 0.00in /  0mm
19:04 68.7 °F /  20.4 °C 56.9 °F /  13.8 °C 29.86in /  1011.1hPa Calm     66% 0.00in /  0mm
19:09 68.5 °F /  20.3 °C 56.7 °F /  13.7 °C 29.85in /  1010.7hPa Calm     66% 0.00in /  0mm
19:14 68.1 °F /  20.1 °C 55.9 °F /  13.3 °C 29.86in /  1011.1hPa Calm     65% 0.00in /  0mm
19:19 67.4 °F /  19.7 °C 55.2 °F /  12.9 °C 29.85in /  1010.7hPa Calm     65% 0.00in /  0mm
19:24 66.6 °F /  19.2 °C 55.7 °F /  13.2 °C 29.85in /  1010.7hPa Calm     68% 0.00in /  0mm
19:29 65.6 °F /  18.7 °C 55.2 °F /  12.9 °C 29.85in /  1010.7hPa Calm     69% 0.00in /  0mm
19:34 64.7 °F /  18.2 °C 54.7 °F /  12.6 °C 29.85in /  1010.7hPa Calm     70% 0.00in /  0mm
19:40 63.9 °F /  17.7 °C 53.9 °F /  12.2 °C 29.86in /  1011.1hPa Calm     70% 0.00in /  0mm
19:49 61.9 °F /  16.6 °C 52.8 °F /  11.6 °C 29.86in /  1011.1hPa Calm     72% 0.00in /  0mm
19:54 60.8 °F /  16 °C 52.8 °F /  11.6 °C 29.86in /  1011.1hPa Calm     75% 0.00in /  0mm
19:59 59.7 °F /  15.4 °C 51.8 °F /  11 °C 29.86in /  1011.1hPa Calm     75% 0.00in /  0mm
20:04 58.8 °F /  14.9 °C 51.3 °F /  10.7 °C 29.86in /  1011.1hPa Calm     76% 0.00in /  0mm
20:09 58.0 °F /  14.4 °C 51.2 °F /  10.7 °C 29.86in /  1011.1hPa Calm     78% 0.00in /  0mm
20:14 57.3 °F /  14.1 °C 50.8 °F /  10.4 °C 29.86in /  1011.1hPa Calm     79% 0.00in /  0mm
20:19 56.6 °F /  13.7 °C 50.5 °F /  10.3 °C 29.86in /  1011.1hPa Calm     80% 0.00in /  0mm
20:24 56.0 °F /  13.3 °C 49.9 °F /  9.9 °C 29.87in /  1011.4hPa Calm     80% 0.00in /  0mm
20:29 55.5 °F /  13.1 °C 49.8 °F /  9.9 °C 29.87in /  1011.4hPa Calm     81% 0.00in /  0mm
20:34 55.1 °F /  12.8 °C 49.7 °F /  9.8 °C 29.87in /  1011.4hPa Calm     82% 0.00in /  0mm
20:39 54.6 °F /  12.6 °C 49.5 °F /  9.7 °C 29.87in /  1011.4hPa Calm     83% 0.00in /  0mm
20:44 54.4 °F /  12.4 °C 49.7 °F /  9.8 °C 29.87in /  1011.4hPa Calm     84% 0.00in /  0mm
20:49 54.2 °F /  12.3 °C 49.5 °F /  9.7 °C 29.87in /  1011.4hPa Calm     84% 0.00in /  0mm
20:54 54.0 °F /  12.2 °C 49.6 °F /  9.8 °C 29.87in /  1011.4hPa Calm     85% 0.00in /  0mm
20:59 53.8 °F /  12.1 °C 49.4 °F /  9.7 °C 29.87in /  1011.4hPa Calm     85% 0.00in /  0mm
21:04 53.6 °F /  12 °C 49.2 °F /  9.6 °C 29.88in /  1011.7hPa Calm     85% 0.00in /  0mm
21:09 53.3 °F /  11.8 °C 48.9 °F /  9.4 °C 29.88in /  1011.7hPa Calm     85% 0.00in /  0mm
21:14 53.1 °F /  11.7 °C 48.7 °F /  9.3 °C 29.88in /  1011.7hPa Calm     85% 0.00in /  0mm
21:19 52.9 °F /  11.6 °C 48.8 °F /  9.3 °C 29.87in /  1011.4hPa Calm     86% 0.00in /  0mm
21:24 52.8 °F /  11.6 °C 48.7 °F /  9.3 °C 29.87in /  1011.4hPa Calm     86% 0.00in /  0mm
21:29 52.7 °F /  11.5 °C 48.6 °F /  9.2 °C 29.87in /  1011.4hPa Calm     86% 0.00in /  0mm
21:34 52.6 °F /  11.4 °C 48.8 °F /  9.3 °C 29.87in /  1011.4hPa Calm     87% 0.00in /  0mm
21:39 52.6 °F /  11.4 °C 48.8 °F /  9.3 °C 29.87in /  1011.4hPa Calm     87% 0.00in /  0mm
21:44 52.6 °F /  11.4 °C 48.8 °F /  9.3 °C 29.87in /  1011.4hPa Calm     87% 0.00in /  0mm
21:49 52.6 °F /  11.4 °C 48.8 °F /  9.3 °C 29.87in /  1011.4hPa Calm     87% 0.00in /  0mm
21:54 52.5 °F /  11.4 °C 49.1 °F /  9.5 °C 29.88in /  1011.7hPa Calm     88% 0.00in /  0mm
21:59 52.5 °F /  11.4 °C 49.1 °F /  9.5 °C 29.88in /  1011.7hPa Calm     88% 0.00in /  0mm
22:04 52.6 °F /  11.4 °C 49.2 °F /  9.6 °C 29.87in /  1011.4hPa Calm     88% 0.00in /  0mm
22:09 52.6 °F /  11.4 °C 49.5 °F /  9.7 °C 29.87in /  1011.4hPa Calm     89% 0.00in /  0mm
22:14 52.6 °F /  11.4 °C 49.5 °F /  9.7 °C 29.88in /  1011.7hPa Calm     89% 0.00in /  0mm
22:19 52.6 °F /  11.4 °C 49.5 °F /  9.7 °C 29.88in /  1011.7hPa Calm     89% 0.00in /  0mm
22:24 52.7 °F /  11.5 °C 49.6 °F /  9.8 °C 29.88in /  1011.7hPa Calm     89% 0.00in /  0mm
22:29 52.7 °F /  11.5 °C 49.6 °F /  9.8 °C 29.87in /  1011.4hPa Calm     89% 0.00in /  0mm
22:34 52.7 °F /  11.5 °C 49.9 °F /  9.9 °C 29.88in /  1011.7hPa Calm     90% 0.00in /  0mm
22:39 52.8 °F /  11.6 °C 50.0 °F /  10 °C 29.88in /  1011.7hPa Calm     90% 0.00in /  0mm
22:44 53.0 °F /  11.7 °C 50.1 °F /  10.1 °C 29.87in /  1011.4hPa Calm     90% 0.00in /  0mm
22:49 52.9 °F /  11.6 °C 50.0 °F /  10 °C 29.87in /  1011.4hPa Calm     90% 0.00in /  0mm
22:54 53.0 °F /  11.7 °C 50.1 °F /  10.1 °C 29.87in /  1011.4hPa Calm     90% 0.00in /  0mm
22:59 53.0 °F /  11.7 °C 50.1 °F /  10.1 °C 29.87in /  1011.4hPa Calm     90% 0.00in /  0mm
23:04 52.8 °F /  11.6 °C 50.0 °F /  10 °C 29.87in /  1011.4hPa Calm     90% 0.00in /  0mm
23:09 52.7 °F /  11.5 °C 49.9 °F /  9.9 °C 29.87in /  1011.4hPa Calm     90% 0.00in /  0mm
23:14 52.8 °F /  11.6 °C 50.0 °F /  10 °C 29.87in /  1011.4hPa Calm   1.0mph /  1.6km/h 90% 0.00in /  0mm
23:19 52.9 °F /  11.6 °C 50.0 °F /  10 °C 29.87in /  1011.4hPa Calm   1.0mph /  1.6km/h 90% 0.00in /  0mm
23:24 53.2 °F /  11.8 °C 50.0 °F /  10 °C 29.87in /  1011.4hPa Calm   1.0mph /  1.6km/h 89% 0.00in /  0mm
23:29 53.3 °F /  11.8 °C 50.1 °F /  10.1 °C 29.87in /  1011.4hPa Calm     89% 0.00in /  0mm
23:34 53.4 °F /  11.9 °C 50.2 °F /  10.1 °C 29.87in /  1011.4hPa Calm     89% 0.00in /  0mm
23:39 53.4 °F /  11.9 °C 49.9 °F /  9.9 °C 29.87in /  1011.4hPa Calm     88% 0.00in /  0mm
23:44 53.4 °F /  11.9 °C 49.9 °F /  9.9 °C 29.87in /  1011.4hPa Calm     88% 0.00in /  0mm
23:49 53.1 °F /  11.7 °C 49.6 °F /  9.8 °C 29.87in /  1011.4hPa Calm     88% 0.00in /  0mm
23:54 53.1 °F /  11.7 °C 49.6 °F /  9.8 °C 29.87in /  1011.4hPa Calm   4.0mph /  6.4km/h 88% 0.00in /  0mm
23:59 53.0 °F /  11.7 °C 49.2 °F /  9.6 °C 29.87in /  1011.4hPa Calm   4.0mph /  6.4km/h 87% 0.00in /  0mm
Westford Weather
Compliments of Weather Underground

 
 
Current Radar Loop:

Copyright © WestfordWeather.net 2007-2014. All rights reserved.